Flight Track Log - Related Links

Times and Time Zones

All times are in EST time to prevent confusion due to time zone crossing. See the N421KS flight status page for this flight to view local times or setup timezone preferences in your user account.

Time Position Orientation Groundspeed Altitude Reporting Facility
EST Latitude Longitude Course Direction KTS MPH feet Rate Location/Type
Fri 06:01:02 PM 40.2128 -76.9819 21° North 123 142 3,500  Level New York Center
Fri 06:02:02 PM 40.2211 -77.0208 286° West 128 147 4,300 1,000 Climbing New York Center
Fri 06:03:02 PM 40.2636 -77.0436 338° Northwest 156 180 5,500 1,000 Climbing New York Center
Fri 06:04:00 PM 40.4473 -76.9430 21° North  Level FlightAware Approximate
Fri 06:04:02 PM 40.2933 -77.0328 16° North 160 184 6,300  Level New York Center
Fri 06:05:02 PM 40.3417 -77.0261 North 160 184 7,300 850 Climbing New York Center
Fri 06:06:02 PM 40.3797 -77.0161 11° North 160 184 8,000 600 Climbing New York Center
Fri 06:07:02 PM 40.4278 -76.9742 34° Northeast 177 204 8,500 550 Climbing New York Center
Fri 06:08:02 PM 40.4711 -76.9453 27° Northeast 187 215 9,100 700 Climbing New York Center
Fri 06:09:02 PM 40.5119 -76.8806 50° Northeast 200 230 9,900 750 Climbing New York Center
Fri 06:10:02 PM 40.5439 -76.8261 52° Northeast 208 239 10,600 550 Climbing New York Center
Fri 06:11:02 PM 40.5847 -76.7614 50° Northeast 218 251 11,000 200 Climbing New York Center
Fri 06:12:02 PM 40.6281 -76.6858 53° Northeast 230 265 11,000  Level New York Center
Fri 06:13:02 PM 40.6672 -76.6125 55° Northeast 236 272 11,000  Level New York Center
Fri 06:14:02 PM 40.7122 -76.5425 50° Northeast 241 277 11,000  Level New York Center
Fri 06:15:02 PM 40.7550 -76.4803 48° Northeast 246 283 11,000  Level New York Center
Fri 06:16:02 PM 40.7978 -76.4125 50° Northeast 246 283 11,000  Level New York Center
Fri 06:17:02 PM 40.8472 -76.3369 49° Northeast 246 283 11,000  Level New York Center
Fri 06:18:02 PM 40.8942 -76.2694 47° Northeast 246 283 11,000  Level New York Center
Fri 06:19:02 PM 40.9389 -76.2017 49° Northeast 241 277 11,000  Level New York Center
Fri 06:20:02 PM 40.9836 -76.1364 48° Northeast 254 292 11,000  Level New York Center
Fri 06:21:02 PM 41.0328 -76.0606 49° Northeast 254 292 11,000  Level New York Center
Fri 06:22:02 PM 41.0794 -75.9928 48° Northeast 248 285 11,000  Level New York Center
Fri 06:23:02 PM 41.1283 -75.9247 46° Northeast 248 285 11,000  Level New York Center
Fri 06:24:02 PM 41.1686 -75.8617 50° Northeast 253 291 11,000  Level New York Center
Fri 06:25:02 PM 41.2172 -75.7964 45° Northeast 253 291 11,000  Level New York Center
Fri 06:26:02 PM 41.2683 -75.7231 47° Northeast 253 291 11,000  Level New York Center
Fri 06:27:02 PM 41.3150 -75.6519 49° Northeast 253 291 11,000  Level New York Center
Fri 06:28:02 PM 41.3589 -75.5914 46° Northeast 253 291 11,000  Level New York Center
Fri 06:29:02 PM 41.4019 -75.5089 55° Northeast 253 291 11,000  Level New York Center
Fri 06:30:34 PM 41.4575 -75.4028 55° Northeast 255 293 11,000  Level Boston Center
Fri 06:31:35 PM 41.4964 -75.3206 58° Northeast 262 302 11,000  Level Boston Center
Fri 06:32:37 PM 41.5408 -75.2211 59° Northeast 262 302 11,000  Level Boston Center
Fri 06:33:38 PM 41.5783 -75.1400 58° Northeast 258 297 11,000  Level Boston Center
Fri 06:34:39 PM 41.6183 -75.0500 59° Northeast 256 295 11,000  Level Boston Center
Fri 06:35:41 PM 41.6539 -74.9664 60° Northeast 260 299 11,000  Level Boston Center
Fri 06:36:42 PM 41.6914 -74.8850 58° Northeast 258 297 11,000  Level Boston Center
Fri 06:37:43 PM 41.7300 -74.7981 59° Northeast 254 292 11,000  Level Boston Center
Fri 06:38:45 PM 41.7664 -74.7161 59° Northeast 256 295 11,000  Level Boston Center
Fri 06:39:46 PM 41.8019 -74.6336 60° Northeast 257 296 11,000  Level Boston Center
Fri 06:40:47 PM 41.8386 -74.5519 59° Northeast 255 293 11,000  Level Boston Center
Fri 06:41:48 PM 41.8778 -74.4631 59° Northeast 257 296 11,000  Level Boston Center
Fri 06:42:50 PM 41.9136 -74.3825 59° Northeast 253 291 11,000  Level Boston Center
Fri 06:43:51 PM 41.9500 -74.3028 58° Northeast 249 287 11,000  Level Boston Center
Fri 06:44:52 PM 41.9867 -74.2194 59° Northeast 256 295 11,000  Level Boston Center
Fri 06:45:53 PM 42.0233 -74.1389 58° Northeast 252 290 11,000  Level Boston Center
Fri 06:46:54 PM 42.0611 -74.0519 60° Northeast 252 290 11,000  Level Boston Center
Fri 06:47:56 PM 42.0969 -73.9694 60° Northeast 255 293 11,000  Level Boston Center
Fri 06:48:57 PM 42.1333 -73.8897 58° Northeast 251 289 11,000  Level Boston Center
Fri 06:49:58 PM 42.1700 -73.8031 60° Northeast 249 287 11,000  Level Boston Center
Fri 06:50:59 PM 42.2036 -73.7219 61° Northeast 249 287 11,000  Level Boston Center
Fri 06:52:01 PM 42.2344 -73.6525 59° Northeast 248 285 11,000  Level Boston Center
Fri 06:53:02 PM 42.2694 -73.5719 60° Northeast 247 284 11,000  Level Boston Center
Fri 06:54:03 PM 42.2961 -73.5086 60° Northeast 245 282 11,000 49 Level Boston Center
Fri 06:55:04 PM 42.3439 -73.3975 60° Northeast 245 282 11,100 -49 Climbing Boston Center
Fri 06:56:06 PM 42.3769 -73.3169 61° Northeast 246 283 10,900 -89 Descending Boston Center
Fri 06:57:19 PM 42.4078 -73.2311 64° Northeast 251 289 10,900  Level Boston Center
Fri 06:58:21 PM 42.4461 -73.1275 63° Northeast 251 289 10,900 49 Level Boston Center
Fri 06:59:22 PM 42.4789 -73.0375 64° Northeast 248 285 11,000  Climbing Boston Center
Fri 07:00:23 PM 42.5097 -72.9558 63° Northeast 252 290 10,900 -49 Descending Boston Center
Fri 07:01:24 PM 42.5439 -72.8669 62° Northeast 249 287 10,900  Level Boston Center
Fri 07:02:25 PM 42.5781 -72.7864 60° Northeast 247 284 10,900 49 Level Boston Center
Fri 07:03:27 PM 42.6103 -72.7139 59° Northeast 243 280 11,000 49 Climbing Boston Center
Fri 07:04:28 PM 42.6442 -72.6333 60° Northeast 244 281 11,000 -49 Level Boston Center
Fri 07:05:29 PM 42.6772 -72.5511 61° Northeast 248 285 10,900 -49 Descending Boston Center
Fri 07:06:30 PM 42.7100 -72.4708 61° Northeast 246 283 10,900  Level Boston Center
Fri 07:07:32 PM 42.7439 -72.3894 60° Northeast 248 285 10,900  Level Boston Center
Fri 07:08:33 PM 42.7781 -72.3111 59° Northeast 243 280 10,900  Level Boston Center
Fri 07:09:34 PM 42.8222 -72.2161 58° Northeast 245 282 10,900  Level Boston Center
Fri 07:10:35 PM 42.8650 -72.1439 51° Northeast 244 281 10,900  Level Boston Center
Fri 07:11:37 PM 42.9083 -72.0708 51° Northeast 246 283 10,900  Level Boston Center
Fri 07:12:38 PM 42.9581 -71.9969 47° Northeast 245 282 10,900  Level Boston Center
Fri 07:13:39 PM 43.0047 -71.9269 48° Northeast 250 288 10,900  Level Boston Center
Fri 07:14:40 PM 43.0503 -71.8567 48° Northeast 248 285 10,900  Level Boston Center
Fri 07:15:41 PM 43.0931 -71.7850 51° Northeast 244 281 10,900  Level Boston Center
Fri 07:16:43 PM 43.1389 -71.7044 52° Northeast 249 287 10,900 49 Level Boston Center
Fri 07:17:44 PM 43.1819 -71.6328 51° Northeast 245 282 11,000  Climbing Boston Center
Fri 07:18:28 PM 43.2167 -71.5833 46° Northeast 238 274 10,900 -343 Descending KA90
Fri 07:20:04 PM 43.2833 -71.4667 52° Northeast 248 285 10,200 -538 Descending KA90
Fri 07:21:04 PM 43.3167 -71.3833 61° Northeast 249 287 9,500 -723 Descending KA90
Fri 07:22:50 PM 43.3967 -71.2611 48° Northeast 246 283 8,200 -857 Descending Boston Center
Fri 07:23:52 PM 43.4386 -71.1897 51° Northeast 242 278 7,100 -1,122 Descending Boston Center
Fri 07:24:53 PM 43.4786 -71.1089 56° Northeast 238 274 5,900 -885 Descending Boston Center
Fri 07:25:54 PM 43.5000 -71.0239 71° East 235 270 5,300 -443 Descending Boston Center
Fri 07:26:55 PM 43.5161 -70.9625 70° East 226 260 5,000 -443 Descending Boston Center
Fri 07:27:56 PM 43.5358 -70.8625 75° East 220 253 4,400 -492 Descending Boston Center
Fri 07:28:57 PM 43.5522 -70.7767 75° East 219 252 4,000 -197 Descending Boston Center
Fri 07:29:58 PM 43.5667 -70.6978 76° East 214 246 4,000  Level Boston Center
Fri 07:31:00 PM 43.5819 -70.6239 74° East 204 235 4,000 -293 Level Boston Center
Fri 07:32:01 PM 43.5939 -70.5472 78° East 204 235 3,400 -738 Descending Boston Center
Fri 07:33:02 PM 43.6067 -70.4603 78° East 213 245 2,500 -738 Descending Boston Center
Fri 07:34:03 PM 43.6142 -70.3828 82° East 207 238 1,900 -443 Descending Boston Center
Fri 07:35:04 PM 43.5936 -70.3161 113° Southeast 191 220 1,600 -197 Descending Boston Center
Fri 07:36:05 PM 43.5803 -70.2600 108° East 167 192 1,500 -295 Descending Boston Center
Fri 07:37:06 PM 43.6131 -70.2342 30° Northeast 133 153 1,000 -393 Descending Boston Center
Fri 07:38:07 PM 43.6381 -70.2533 331° Northwest 105 121 700 -393 Descending Boston Center
Fri 07:39:08 PM 43.6444 -70.2900 284° West 98 113 200 -492 Descending Boston Center

Login

Don't have an account? Register now (free) for customized features, flight alerts, and more!